sensor_id;sensor_type;location;lat;lon;timestamp;pressure;altitude;pressure_sealevel;temperature;humidity
73817;BME280;62146;53.232;-1.304;2023-03-03T00:01:00;101881.38;;;5.82;100.00
73817;BME280;62146;53.232;-1.304;2023-03-03T00:03:26;101886.97;;;5.79;100.00
73817;BME280;62146;53.232;-1.304;2023-03-03T00:05:53;101890.47;;;5.79;100.00
73817;BME280;62146;53.232;-1.304;2023-03-03T00:08:20;101881.38;;;5.82;100.00
73817;BME280;62146;53.232;-1.304;2023-03-03T00:10:48;101881.56;;;5.80;100.00
73817;BME280;62146;53.232;-1.304;2023-03-03T00:13:19;101890.28;;;5.81;100.00
73817;BME280;62146;53.232;-1.304;2023-03-03T00:15:46;101889.63;;;5.79;100.00
73817;BME280;62146;53.232;-1.304;2023-03-03T00:18:20;101896.88;;;5.77;100.00
73817;BME280;62146;53.232;-1.304;2023-03-03T00:20:56;101900.50;;;5.76;100.00
73817;BME280;62146;53.232;-1.304;2023-03-03T00:23:25;101901.47;;;5.75;100.00
73817;BME280;62146;53.232;-1.304;2023-03-03T00:25:55;101906.28;;;5.71;100.00
73817;BME280;62146;53.232;-1.304;2023-03-03T00:28:31;101893.44;;;5.68;100.00
73817;BME280;62146;53.232;-1.304;2023-03-03T00:30:59;101889.84;;;5.69;100.00
73817;BME280;62146;53.232;-1.304;2023-03-03T00:33:32;101895.09;;;5.69;100.00
73817;BME280;62146;53.232;-1.304;2023-03-03T00:36:30;101896.06;;;5.68;100.00
73817;BME280;62146;53.232;-1.304;2023-03-03T00:39:21;101897.06;;;5.67;100.00
73817;BME280;62146;53.232;-1.304;2023-03-03T00:41:51;101899.22;;;5.64;100.00
73817;BME280;62146;53.232;-1.304;2023-03-03T00:46:47;101885.88;;;5.65;100.00
73817;BME280;62146;53.232;-1.304;2023-03-03T00:49:23;101892.16;;;5.64;100.00
73817;BME280;62146;53.232;-1.304;2023-03-03T00:51:52;101887.41;;;5.60;100.00
73817;BME280;62146;53.232;-1.304;2023-03-03T00:54:19;101888.38;;;5.59;100.00
73817;BME280;62146;53.232;-1.304;2023-03-03T00:56:46;101894.63;;;5.58;100.00
73817;BME280;62146;53.232;-1.304;2023-03-03T00:59:12;101893.63;;;5.59;100.00
73817;BME280;62146;53.232;-1.304;2023-03-03T01:01:39;101893.16;;;5.56;100.00
73817;BME280;62146;53.232;-1.304;2023-03-03T01:04:05;101902.88;;;5.55;100.00
73817;BME280;62146;53.232;-1.304;2023-03-03T01:06:32;101907.31;;;5.55;100.00
73817;BME280;62146;53.232;-1.304;2023-03-03T01:08:58;101908.31;;;5.54;100.00
73817;BME280;62146;53.232;-1.304;2023-03-03T01:11:25;101907.50;;;5.53;100.00
73817;BME280;62146;53.232;-1.304;2023-03-03T01:13:53;101911.13;;;5.52;100.00
73817;BME280;62146;53.232;-1.304;2023-03-03T01:16:21;101905.84;;;5.52;100.00
73817;BME280;62146;53.232;-1.304;2023-03-03T01:18:48;101906.66;;;5.53;100.00
73817;BME280;62146;53.232;-1.304;2023-03-03T01:21:14;101908.81;;;5.49;100.00
73817;BME280;62146;53.232;-1.304;2023-03-03T01:23:41;101921.16;;;5.49;100.00
73817;BME280;62146;53.232;-1.304;2023-03-03T01:26:08;101913.41;;;5.47;100.00
73817;BME280;62146;53.232;-1.304;2023-03-03T01:28:34;101907.34;;;5.47;100.00
73817;BME280;62146;53.232;-1.304;2023-03-03T01:31:03;101911.44;;;5.49;100.00
73817;BME280;62146;53.232;-1.304;2023-03-03T01:33:31;101913.91;;;5.51;100.00
73817;BME280;62146;53.232;-1.304;2023-03-03T01:35:58;101914.41;;;5.46;100.00
73817;BME280;62146;53.232;-1.304;2023-03-03T01:38:25;101909.16;;;5.46;100.00
73817;BME280;62146;53.232;-1.304;2023-03-03T01:40:55;101924.28;;;5.44;100.00
73817;BME280;62146;53.232;-1.304;2023-03-03T01:43:24;101912.44;;;5.40;100.00
73817;BME280;62146;53.232;-1.304;2023-03-03T01:48:22;101914.44;;;5.38;100.00
73817;BME280;62146;53.232;-1.304;2023-03-03T01:50:54;101922.34;;;5.38;100.00
73817;BME280;62146;53.232;-1.304;2023-03-03T01:53:27;101915.25;;;5.39;100.00
73817;BME280;62146;53.232;-1.304;2023-03-03T01:55:56;101916.25;;;5.38;100.00
73817;BME280;62146;53.232;-1.304;2023-03-03T01:58:27;101918.06;;;5.37;100.00
73817;BME280;62146;53.232;-1.304;2023-03-03T02:00:59;101913.97;;;5.35;100.00
73817;BME280;62146;53.232;-1.304;2023-03-03T02:03:27;101917.75;;;5.32;100.00
73817;BME280;62146;53.232;-1.304;2023-03-03T02:05:59;101916.91;;;5.32;100.00
73817;BME280;62146;53.232;-1.304;2023-03-03T02:11:09;101918.72;;;5.32;100.00
73817;BME280;62146;53.232;-1.304;2023-03-03T02:13:36;101916.28;;;5.30;100.00
73817;BME280;62146;53.232;-1.304;2023-03-03T02:16:03;101919.56;;;5.32;100.00
73817;BME280;62146;53.232;-1.304;2023-03-03T02:18:30;101919.72;;;5.31;100.00
73817;BME280;62146;53.232;-1.304;2023-03-03T02:21:03;101920.38;;;5.32;100.00
73817;BME280;62146;53.232;-1.304;2023-03-03T02:26:15;101912.00;;;5.29;100.00
73817;BME280;62146;53.232;-1.304;2023-03-03T02:28:43;101911.34;;;5.27;100.00
73817;BME280;62146;53.232;-1.304;2023-03-03T02:31:13;101902.81;;;5.25;100.00
73817;BME280;62146;53.232;-1.304;2023-03-03T02:33:43;101912.50;;;5.25;100.00
73817;BME280;62146;53.232;-1.304;2023-03-03T02:36:12;101905.44;;;5.25;100.00
73817;BME280;62146;53.232;-1.304;2023-03-03T02:38:50;101908.25;;;5.24;100.00
73817;BME280;62146;53.232;-1.304;2023-03-03T02:41:54;101908.25;;;5.24;100.00
73817;BME280;62146;53.232;-1.304;2023-03-03T02:44:25;101907.75;;;5.20;100.00
73817;BME280;62146;53.232;-1.304;2023-03-03T02:46:53;101911.88;;;5.23;100.00
73817;BME280;62146;53.232;-1.304;2023-03-03T02:49:31;101913.00;;;5.20;100.00
73817;BME280;62146;53.232;-1.304;2023-03-03T02:51:59;101908.75;;;5.19;100.00
73817;BME280;62146;53.232;-1.304;2023-03-03T02:54:28;101913.19;;;5.19;100.00
73817;BME280;62146;53.232;-1.304;2023-03-03T02:56:57;101910.56;;;5.19;100.00
73817;BME280;62146;53.232;-1.304;2023-03-03T02:59:23;101919.41;;;5.18;100.00
73817;BME280;62146;53.232;-1.304;2023-03-03T03:01:52;101918.59;;;5.17;100.00
73817;BME280;62146;53.232;-1.304;2023-03-03T03:04:22;101910.91;;;5.16;100.00
73817;BME280;62146;53.232;-1.304;2023-03-03T03:06:49;101905.81;;;5.14;100.00
73817;BME280;62146;53.232;-1.304;2023-03-03T03:09:17;101909.09;;;5.16;100.00
73817;BME280;62146;53.232;-1.304;2023-03-03T03:11:44;101908.44;;;5.14;100.00
73817;BME280;62146;53.232;-1.304;2023-03-03T03:14:11;101907.78;;;5.12;100.00
73817;BME280;62146;53.232;-1.304;2023-03-03T03:16:38;101898.41;;;5.10;100.00
73817;BME280;62146;53.232;-1.304;2023-03-03T03:19:05;101899.25;;;5.10;100.00
73817;BME280;62146;53.232;-1.304;2023-03-03T03:21:35;101901.88;;;5.10;100.00
73817;BME280;62146;53.232;-1.304;2023-03-03T03:24:02;101899.41;;;5.09;100.00
73817;BME280;62146;53.232;-1.304;2023-03-03T03:26:29;101894.16;;;5.09;100.00
73817;BME280;62146;53.232;-1.304;2023-03-03T03:28:55;101900.41;;;5.08;100.00
73817;BME280;62146;53.232;-1.304;2023-03-03T03:31:22;101893.50;;;5.07;100.00
73817;BME280;62146;53.232;-1.304;2023-03-03T03:33:48;101894.66;;;5.05;100.00
73817;BME280;62146;53.232;-1.304;2023-03-03T03:36:15;101892.84;;;5.05;100.00
73817;BME280;62146;53.232;-1.304;2023-03-03T03:38:43;101890.88;;;5.07;100.00
73817;BME280;62146;53.232;-1.304;2023-03-03T03:41:10;101896.13;;;5.07;100.00
73817;BME280;62146;53.232;-1.304;2023-03-03T03:43:37;101897.94;;;5.07;100.00
73817;BME280;62146;53.232;-1.304;2023-03-03T03:46:04;101893.16;;;5.10;100.00
73817;BME280;62146;53.232;-1.304;2023-03-03T03:48:31;101903.34;;;5.05;100.00
73817;BME280;62146;53.232;-1.304;2023-03-03T03:50:58;101899.91;;;5.05;100.00
73817;BME280;62146;53.232;-1.304;2023-03-03T03:53:25;101897.09;;;5.06;100.00
73817;BME280;62146;53.232;-1.304;2023-03-03T03:55:51;101900.91;;;5.04;100.00
73817;BME280;62146;53.232;-1.304;2023-03-03T03:58:18;101891.38;;;5.03;100.00
73817;BME280;62146;53.232;-1.304;2023-03-03T04:00:46;101889.72;;;5.02;100.00
73817;BME280;62146;53.232;-1.304;2023-03-03T04:03:14;101888.28;;;4.99;100.00
73817;BME280;62146;53.232;-1.304;2023-03-03T04:05:41;101891.06;;;4.98;100.00
73817;BME280;62146;53.232;-1.304;2023-03-03T04:08:08;101896.16;;;4.99;100.00
73817;BME280;62146;53.232;-1.304;2023-03-03T04:10:35;101890.22;;;4.97;100.00
73817;BME280;62146;53.232;-1.304;2023-03-03T04:13:01;101884.97;;;4.97;100.00
73817;BME280;62146;53.232;-1.304;2023-03-03T04:15:28;101886.78;;;4.97;100.00
73817;BME280;62146;53.232;-1.304;2023-03-03T04:17:55;101892.03;;;4.97;100.00
73817;BME280;62146;53.232;-1.304;2023-03-03T04:20:21;101893.53;;;4.99;100.00
73817;BME280;62146;53.232;-1.304;2023-03-03T04:22:48;101896.97;;;5.00;100.00
73817;BME280;62146;53.232;-1.304;2023-03-03T04:25:16;101896.50;;;4.96;100.00
73817;BME280;62146;53.232;-1.304;2023-03-03T04:27:43;101892.88;;;4.97;100.00
73817;BME280;62146;53.232;-1.304;2023-03-03T04:30:11;101888.28;;;4.99;100.00
73817;BME280;62146;53.232;-1.304;2023-03-03T04:32:38;101892.03;;;4.97;100.00
73817;BME280;62146;53.232;-1.304;2023-03-03T04:35:05;101895.50;;;4.97;100.00
73817;BME280;62146;53.232;-1.304;2023-03-03T04:37:36;101889.59;;;4.95;100.00
73817;BME280;62146;53.232;-1.304;2023-03-03T04:40:05;101893.03;;;4.96;100.00
73817;BME280;62146;53.232;-1.304;2023-03-03T04:42:32;101893.84;;;4.96;100.00
73817;BME280;62146;53.232;-1.304;2023-03-03T04:44:59;101894.19;;;4.93;100.00
73817;BME280;62146;53.232;-1.304;2023-03-03T04:47:25;101889.94;;;4.92;100.00
73817;BME280;62146;53.232;-1.304;2023-03-03T04:49:52;101883.84;;;4.92;100.00
73817;BME280;62146;53.232;-1.304;2023-03-03T04:52:18;101889.25;;;4.90;100.00
73817;BME280;62146;53.232;-1.304;2023-03-03T04:54:45;101889.44;;;4.89;100.00
73817;BME280;62146;53.232;-1.304;2023-03-03T04:57:11;101891.75;;;4.92;100.00
73817;BME280;62146;53.232;-1.304;2023-03-03T04:59:38;101888.28;;;4.91;100.00
73817;BME280;62146;53.232;-1.304;2023-03-03T05:02:04;101885.66;;;4.91;100.00
73817;BME280;62146;53.232;-1.304;2023-03-03T05:04:31;101889.44;;;4.89;100.00
73817;BME280;62146;53.232;-1.304;2023-03-03T05:06:58;101894.03;;;4.87;100.00
73817;BME280;62146;53.232;-1.304;2023-03-03T05:09:24;101886.00;;;4.88;100.00
73817;BME280;62146;53.232;-1.304;2023-03-03T05:11:51;101897.31;;;4.89;100.00
73817;BME280;62146;53.232;-1.304;2023-03-03T05:14:18;101892.88;;;4.89;100.00
73817;BME280;62146;53.232;-1.304;2023-03-03T05:16:44;101897.31;;;4.89;100.00
73817;BME280;62146;53.232;-1.304;2023-03-03T05:19:11;101896.50;;;4.88;100.00
73817;BME280;62146;53.232;-1.304;2023-03-03T05:21:38;101882.19;;;4.91;100.00
73817;BME280;62146;53.232;-1.304;2023-03-03T05:24:12;101898.94;;;4.90;100.00
73817;BME280;62146;53.232;-1.304;2023-03-03T05:26:40;101895.69;;;4.88;100.00
73817;BME280;62146;53.232;-1.304;2023-03-03T05:29:08;101895.31;;;4.91;100.00
73817;BME280;62146;53.232;-1.304;2023-03-03T05:31:35;101892.06;;;4.89;100.00
73817;BME280;62146;53.232;-1.304;2023-03-03T05:34:01;101893.88;;;4.88;100.00
73817;BME280;62146;53.232;-1.304;2023-03-03T05:36:28;101899.13;;;4.88;100.00
73817;BME280;62146;53.232;-1.304;2023-03-03T05:38:55;101892.88;;;4.89;100.00
73817;BME280;62146;53.232;-1.304;2023-03-03T05:41:21;101895.84;;;4.86;100.00
73817;BME280;62146;53.232;-1.304;2023-03-03T05:43:48;101899.28;;;4.87;100.00
73817;BME280;62146;53.232;-1.304;2023-03-03T05:46:15;101900.13;;;4.87;100.00
73817;BME280;62146;53.232;-1.304;2023-03-03T05:48:42;101894.88;;;4.87;100.00
73817;BME280;62146;53.232;-1.304;2023-03-03T05:51:08;101898.47;;;4.86;100.00
73817;BME280;62146;53.232;-1.304;2023-03-03T05:53:35;101891.41;;;4.87;100.00
73817;BME280;62146;53.232;-1.304;2023-03-03T05:56:02;101889.63;;;4.87;100.00
73817;BME280;62146;53.232;-1.304;2023-03-03T05:58:29;101897.81;;;4.84;100.00
73817;BME280;62146;53.232;-1.304;2023-03-03T06:00:55;101895.00;;;4.86;100.00
73817;BME280;62146;53.232;-1.304;2023-03-03T06:03:22;101894.19;;;4.85;100.00
73817;BME280;62146;53.232;-1.304;2023-03-03T06:05:49;101891.75;;;4.84;100.00
73817;BME280;62146;53.232;-1.304;2023-03-03T06:08:15;101892.56;;;4.84;100.00
73817;BME280;62146;53.232;-1.304;2023-03-03T06:10:42;101895.19;;;4.84;100.00
73817;BME280;62146;53.232;-1.304;2023-03-03T06:13:08;101893.72;;;4.82;100.00
73817;BME280;62146;53.232;-1.304;2023-03-03T06:15:35;101894.84;;;4.79;100.00
73817;BME280;62146;53.232;-1.304;2023-03-03T06:18:01;101890.28;;;4.81;100.00
73817;BME280;62146;53.232;-1.304;2023-03-03T06:20:28;101894.53;;;4.82;100.00
73817;BME280;62146;53.232;-1.304;2023-03-03T06:22:55;101898.16;;;4.81;100.00
73817;BME280;62146;53.232;-1.304;2023-03-03T06:25:21;101886.81;;;4.81;100.00
73817;BME280;62146;53.232;-1.304;2023-03-03T06:27:48;101896.66;;;4.79;100.00
73817;BME280;62146;53.232;-1.304;2023-03-03T06:30:15;101892.22;;;4.79;100.00
73817;BME280;62146;53.232;-1.304;2023-03-03T06:32:42;101902.09;;;4.78;100.00
73817;BME280;62146;53.232;-1.304;2023-03-03T06:35:08;101907.34;;;4.78;100.00
73817;BME280;62146;53.232;-1.304;2023-03-03T06:37:35;101903.72;;;4.79;100.00
73817;BME280;62146;53.232;-1.304;2023-03-03T06:40:03;101892.59;;;4.77;100.00
73817;BME280;62146;53.232;-1.304;2023-03-03T06:42:30;101910.97;;;4.77;100.00
73817;BME280;62146;53.232;-1.304;2023-03-03T06:44:56;101913.59;;;4.77;100.00
73817;BME280;62146;53.232;-1.304;2023-03-03T06:47:23;101916.72;;;4.80;100.00
73817;BME280;62146;53.232;-1.304;2023-03-03T06:49:49;101923.94;;;4.78;100.00
73817;BME280;62146;53.232;-1.304;2023-03-03T06:52:23;101920.31;;;4.79;100.00
73817;BME280;62146;53.232;-1.304;2023-03-03T06:54:53;101919.50;;;4.79;100.00
73817;BME280;62146;53.232;-1.304;2023-03-03T06:57:29;101927.38;;;4.79;100.00
73817;BME280;62146;53.232;-1.304;2023-03-03T06:59:59;101921.47;;;4.77;100.00
73817;BME280;62146;53.232;-1.304;2023-03-03T07:02:28;101925.91;;;4.76;100.00
73817;BME280;62146;53.232;-1.304;2023-03-03T07:04:54;101931.19;;;4.76;100.00
73817;BME280;62146;53.232;-1.304;2023-03-03T07:07:24;101928.69;;;4.75;100.00
73817;BME280;62146;53.232;-1.304;2023-03-03T07:09:55;101932.94;;;4.76;100.00
73817;BME280;62146;53.232;-1.304;2023-03-03T07:12:25;101935.59;;;4.76;100.00
73817;BME280;62146;53.232;-1.304;2023-03-03T07:15:42;101939.69;;;4.78;100.00
73817;BME280;62146;53.232;-1.304;2023-03-03T07:17:48;101937.88;;;4.79;100.00
73817;BME280;62146;53.232;-1.304;2023-03-03T07:20:22;101952.84;;;4.78;100.00
73817;BME280;62146;53.232;-1.304;2023-03-03T07:22:49;101954.47;;;4.79;100.00
73817;BME280;62146;53.232;-1.304;2023-03-03T07:25:26;101953.66;;;4.79;100.00
73817;BME280;62146;53.232;-1.304;2023-03-03T07:27:59;101946.59;;;4.79;100.00
73817;BME280;62146;53.232;-1.304;2023-03-03T07:30:33;101955.13;;;4.81;100.00
73817;BME280;62146;53.232;-1.304;2023-03-03T07:32:59;101959.22;;;4.83;100.00
73817;BME280;62146;53.232;-1.304;2023-03-03T07:38:00;101958.91;;;4.86;100.00
73817;BME280;62146;53.232;-1.304;2023-03-03T07:40:49;101963.19;;;4.87;100.00
73817;BME280;62146;53.232;-1.304;2023-03-03T07:46:35;101967.28;;;4.90;100.00
73817;BME280;62146;53.232;-1.304;2023-03-03T07:49:36;101971.41;;;4.92;100.00
73817;BME280;62146;53.232;-1.304;2023-03-03T07:51:59;101966.63;;;4.96;100.00
73817;BME280;62146;53.232;-1.304;2023-03-03T07:54:31;101973.53;;;4.97;100.00
73817;BME280;62146;53.232;-1.304;2023-03-03T07:57:01;101982.22;;;4.97;100.00
73817;BME280;62146;53.232;-1.304;2023-03-03T07:59:34;101973.34;;;4.98;100.00
73817;BME280;62146;53.232;-1.304;2023-03-03T08:02:06;101975.97;;;4.98;100.00
73817;BME280;62146;53.232;-1.304;2023-03-03T08:04:46;101979.28;;;5.00;100.00
73817;BME280;62146;53.232;-1.304;2023-03-03T08:07:18;101976.63;;;5.00;100.00
73817;BME280;62146;53.232;-1.304;2023-03-03T08:09:47;101980.91;;;5.01;100.00
73817;BME280;62146;53.232;-1.304;2023-03-03T08:15:19;101978.94;;;5.03;100.00
73817;BME280;62146;53.232;-1.304;2023-03-03T08:17:47;101986.47;;;5.06;100.00
73817;BME280;62146;53.232;-1.304;2023-03-03T08:20:48;101988.28;;;5.06;100.00
73817;BME280;62146;53.232;-1.304;2023-03-03T08:23:16;101982.22;;;5.05;100.00
73817;BME280;62146;53.232;-1.304;2023-03-03T08:25:43;101983.84;;;5.06;100.00
73817;BME280;62146;53.232;-1.304;2023-03-03T08:28:10;101979.44;;;5.07;100.00
73817;BME280;62146;53.232;-1.304;2023-03-03T08:30:37;101990.59;;;5.08;100.00
73817;BME280;62146;53.232;-1.304;2023-03-03T08:33:04;101992.22;;;5.09;100.00
73817;BME280;62146;53.232;-1.304;2023-03-03T08:35:31;101997.34;;;5.11;100.00
73817;BME280;62146;53.232;-1.304;2023-03-03T08:37:58;102001.59;;;5.12;100.00
73817;BME280;62146;53.232;-1.304;2023-03-03T08:40:24;102000.59;;;5.13;100.00
73817;BME280;62146;53.232;-1.304;2023-03-03T08:42:51;102007.34;;;5.15;100.00
73817;BME280;62146;53.232;-1.304;2023-03-03T08:45:19;102004.53;;;5.17;100.00
73817;BME280;62146;53.232;-1.304;2023-03-03T08:47:46;102000.91;;;5.18;100.00
73817;BME280;62146;53.232;-1.304;2023-03-03T08:50:12;102006.66;;;5.21;100.00
73817;BME280;62146;53.232;-1.304;2023-03-03T08:52:39;102005.53;;;5.24;100.00
73817;BME280;62146;53.232;-1.304;2023-03-03T08:55:06;102004.38;;;5.26;100.00
73817;BME280;62146;53.232;-1.304;2023-03-03T08:57:34;102004.22;;;5.28;100.00
73817;BME280;62146;53.232;-1.304;2023-03-03T09:00:01;102003.06;;;5.30;100.00
73817;BME280;62146;53.232;-1.304;2023-03-03T09:02:28;102000.44;;;5.30;100.00
73817;BME280;62146;53.232;-1.304;2023-03-03T09:04:54;102009.16;;;5.31;100.00
73817;BME280;62146;53.232;-1.304;2023-03-03T09:07:21;102006.19;;;5.33;100.00
73817;BME280;62146;53.232;-1.304;2023-03-03T09:09:48;102011.25;;;5.35;100.00
73817;BME280;62146;53.232;-1.304;2023-03-03T09:12:17;102015.53;;;5.36;100.00
73817;BME280;62146;53.232;-1.304;2023-03-03T09:14:45;102012.56;;;5.39;100.00
73817;BME280;62146;53.232;-1.304;2023-03-03T09:17:29;102013.38;;;5.39;100.00
73817;BME280;62146;53.232;-1.304;2023-03-03T09:20:20;102017.66;;;5.40;100.00
73817;BME280;62146;53.232;-1.304;2023-03-03T09:22:49;102004.34;;;5.42;100.00
73817;BME280;62146;53.232;-1.304;2023-03-03T09:25:35;102010.25;;;5.44;100.00
73817;BME280;62146;53.232;-1.304;2023-03-03T09:28:04;102023.25;;;5.45;100.00
73817;BME280;62146;53.232;-1.304;2023-03-03T09:30:48;102014.38;;;5.46;100.00
73817;BME280;62146;53.232;-1.304;2023-03-03T09:33:20;102011.41;;;5.49;100.00
73817;BME280;62146;53.232;-1.304;2023-03-03T09:35:57;102021.75;;;5.51;100.00
73817;BME280;62146;53.232;-1.304;2023-03-03T09:38:31;102017.16;;;5.53;100.00
73817;BME280;62146;53.232;-1.304;2023-03-03T09:49:33;102014.00;;;5.65;100.00
73817;BME280;62146;53.232;-1.304;2023-03-03T09:52:30;102014.34;;;5.70;100.00
73817;BME280;62146;53.232;-1.304;2023-03-03T10:00:51;102020.53;;;5.85;100.00
73817;BME280;62146;53.232;-1.304;2023-03-03T10:06:22;102027.38;;;6.01;100.00
73817;BME280;62146;53.232;-1.304;2023-03-03T10:17:27;102035.94;;;6.41;100.00
73817;BME280;62146;53.232;-1.304;2023-03-03T10:25:26;102034.34;;;6.54;100.00
73817;BME280;62146;53.232;-1.304;2023-03-03T10:36:34;102036.72;;;6.71;100.00
73817;BME280;62146;53.232;-1.304;2023-03-03T10:55:37;102040.06;;;6.88;100.00
73817;BME280;62146;53.232;-1.304;2023-03-03T11:01:15;102033.44;;;6.92;100.00
73817;BME280;62146;53.232;-1.304;2023-03-03T11:07:08;102043.28;;;6.97;100.00
73817;BME280;62146;53.232;-1.304;2023-03-03T11:24:09;102035.31;;;7.05;100.00
73817;BME280;62146;53.232;-1.304;2023-03-03T11:34:55;102048.44;;;7.13;100.00
73817;BME280;62146;53.232;-1.304;2023-03-03T11:37:34;102036.88;;;7.14;100.00
73817;BME280;62146;53.232;-1.304;2023-03-03T11:40:11;102039.97;;;7.18;100.00
73817;BME280;62146;53.232;-1.304;2023-03-03T11:43:15;102039.63;;;7.21;100.00
73817;BME280;62146;53.232;-1.304;2023-03-03T11:45:57;102033.16;;;7.23;100.00
73817;BME280;62146;53.232;-1.304;2023-03-03T11:48:57;102045.00;;;7.27;100.00
73817;BME280;62146;53.232;-1.304;2023-03-03T11:51:35;102033.28;;;7.29;100.00
73817;BME280;62146;53.232;-1.304;2023-03-03T11:54:14;102034.75;;;7.32;100.00
73817;BME280;62146;53.232;-1.304;2023-03-03T11:56:45;102038.22;;;7.32;100.00
73817;BME280;62146;53.232;-1.304;2023-03-03T12:02:20;102039.66;;;7.35;100.00
73817;BME280;62146;53.232;-1.304;2023-03-03T12:04:55;102038.84;;;7.34;100.00
73817;BME280;62146;53.232;-1.304;2023-03-03T12:15:31;102043.94;;;7.36;100.00
73817;BME280;62146;53.232;-1.304;2023-03-03T12:26:43;102047.53;;;7.43;100.00
73817;BME280;62146;53.232;-1.304;2023-03-03T12:29:46;102041.22;;;7.44;100.00
73817;BME280;62146;53.232;-1.304;2023-03-03T12:38:01;102033.69;;;7.55;100.00
73817;BME280;62146;53.232;-1.304;2023-03-03T12:40:34;102031.53;;;7.58;100.00
73817;BME280;62146;53.232;-1.304;2023-03-03T12:45:50;102024.50;;;7.65;100.00
73817;BME280;62146;53.232;-1.304;2023-03-03T12:48:51;102019.50;;;7.70;100.00
73817;BME280;62146;53.232;-1.304;2023-03-03T12:56:57;102010.13;;;7.82;100.00
73817;BME280;62146;53.232;-1.304;2023-03-03T13:04:35;102009.84;;;7.91;100.00
73817;BME280;62146;53.232;-1.304;2023-03-03T13:07:19;102006.03;;;7.94;100.00
73817;BME280;62146;53.232;-1.304;2023-03-03T13:10:07;102001.34;;;7.96;100.00
73817;BME280;62146;53.232;-1.304;2023-03-03T13:21:16;101997.63;;;8.04;100.00
73817;BME280;62146;53.232;-1.304;2023-03-03T13:26:42;101993.47;;;8.10;100.00
73817;BME280;62146;53.232;-1.304;2023-03-03T13:32:02;101989.63;;;8.12;100.00
73817;BME280;62146;53.232;-1.304;2023-03-03T13:37:45;101986.25;;;8.18;100.00
73817;BME280;62146;53.232;-1.304;2023-03-03T13:45:42;101978.41;;;8.25;100.00
73817;BME280;62146;53.232;-1.304;2023-03-03T13:48:57;101980.69;;;8.28;100.00
73817;BME280;62146;53.232;-1.304;2023-03-03T13:54:04;101985.19;;;8.33;100.00
73817;BME280;62146;53.232;-1.304;2023-03-03T13:56:55;101976.91;;;8.36;100.00
73817;BME280;62146;53.232;-1.304;2023-03-03T13:59:42;101976.34;;;8.41;100.00
73817;BME280;62146;53.232;-1.304;2023-03-03T14:13:28;101987.44;;;8.51;100.00
73817;BME280;62146;53.232;-1.304;2023-03-03T14:16:12;101983.63;;;8.53;100.00
73817;BME280;62146;53.232;-1.304;2023-03-03T14:24:31;101983.66;;;8.59;100.00
73817;BME280;62146;53.232;-1.304;2023-03-03T14:27:20;101980.66;;;8.62;100.00
73817;BME280;62146;53.232;-1.304;2023-03-03T14:29:48;101974.97;;;8.65;100.00
73817;BME280;62146;53.232;-1.304;2023-03-03T14:32:26;101971.78;;;8.70;100.00
73817;BME280;62146;53.232;-1.304;2023-03-03T14:35:18;101970.38;;;8.74;100.00
73817;BME280;62146;53.232;-1.304;2023-03-03T14:37:46;101968.19;;;8.77;100.00
73817;BME280;62146;53.232;-1.304;2023-03-03T14:40:20;101954.75;;;8.79;100.00
73817;BME280;62146;53.232;-1.304;2023-03-03T14:42:55;101960.69;;;8.81;100.00
73817;BME280;62146;53.232;-1.304;2023-03-03T14:45:36;101959.66;;;8.82;100.00
73817;BME280;62146;53.232;-1.304;2023-03-03T14:50:40;101962.97;;;8.83;100.00
73817;BME280;62146;53.232;-1.304;2023-03-03T14:53:12;101955.84;;;8.84;100.00
73817;BME280;62146;53.232;-1.304;2023-03-03T14:55:42;101949.53;;;8.85;100.00
73817;BME280;62146;53.232;-1.304;2023-03-03T14:58:29;101959.09;;;8.86;100.00
73817;BME280;62146;53.232;-1.304;2023-03-03T15:01:23;101953.63;;;8.87;100.00
73817;BME280;62146;53.232;-1.304;2023-03-03T15:04:01;101954.44;;;8.88;100.00
73817;BME280;62146;53.232;-1.304;2023-03-03T15:06:54;101948.34;;;8.87;100.00
73817;BME280;62146;53.232;-1.304;2023-03-03T15:09:33;101948.13;;;8.89;100.00
73817;BME280;62146;53.232;-1.304;2023-03-03T15:12:24;101947.13;;;8.90;100.00
73817;BME280;62146;53.232;-1.304;2023-03-03T15:15:18;101941.66;;;8.91;100.00
73817;BME280;62146;53.232;-1.304;2023-03-03T15:34:40;101922.56;;;8.96;100.00
73817;BME280;62146;53.232;-1.304;2023-03-03T15:40:29;101931.31;;;8.96;100.00
73817;BME280;62146;53.232;-1.304;2023-03-03T15:43:14;101919.72;;;8.97;100.00
73817;BME280;62146;53.232;-1.304;2023-03-03T15:55:11;101922.34;;;8.97;100.00
73817;BME280;62146;53.232;-1.304;2023-03-03T16:02:57;101920.34;;;8.99;100.00
73817;BME280;62146;53.232;-1.304;2023-03-03T16:05:34;101921.53;;;8.97;100.00
73817;BME280;62146;53.232;-1.304;2023-03-03T16:08:14;101916.25;;;8.97;100.00
73817;BME280;62146;53.232;-1.304;2023-03-03T16:10:57;101915.44;;;8.96;100.00
73817;BME280;62146;53.232;-1.304;2023-03-03T16:13:51;101916.25;;;8.97;100.00
73817;BME280;62146;53.232;-1.304;2023-03-03T16:32:36;101907.50;;;8.96;100.00
73817;BME280;62146;53.232;-1.304;2023-03-03T16:35:23;101918.09;;;8.96;100.00
73817;BME280;62146;53.232;-1.304;2023-03-03T16:45:57;101916.84;;;8.92;100.00
73817;BME280;62146;53.232;-1.304;2023-03-03T16:51:08;101926.78;;;8.90;100.00
73817;BME280;62146;53.232;-1.304;2023-03-03T16:53:51;101929.81;;;8.87;100.00
73817;BME280;62146;53.232;-1.304;2023-03-03T16:56:40;101930.00;;;8.86;100.00
73817;BME280;62146;53.232;-1.304;2023-03-03T17:20:58;101953.84;;;8.65;100.00
73817;BME280;62146;53.232;-1.304;2023-03-03T17:29:08;101966.38;;;8.57;100.00
73817;BME280;62146;53.232;-1.304;2023-03-03T17:37:49;101960.34;;;8.49;100.00
73817;BME280;62146;53.232;-1.304;2023-03-03T17:40:49;101961.94;;;8.43;100.00
73817;BME280;62146;53.232;-1.304;2023-03-03T17:43:29;101965.31;;;8.37;100.00
73817;BME280;62146;53.232;-1.304;2023-03-03T17:46:00;101971.16;;;8.33;100.00
73817;BME280;62146;53.232;-1.304;2023-03-03T17:57:21;101966.00;;;8.25;100.00